Time;durP1;ratioP1;P1;durP2;ratioP2;P2;SDS_P1;SDS_P2;PMS_P1;PMS_P2;Temp;Humidity;BMP_temperature;BMP_pressure;BME280_temperature;BME280_humidity;BME280_pressure;Samples;Min_cycle;Max_cycle;Signal;HPM_P1;HPM_P2
2022/06/04 00:01:28;;;;;;;16.30;10.32;;;;;;;;;;4930456;29;20643;-62
2022/06/04 00:03:54;;;;;;;16.13;10.52;;;;;;;;;;4930424;29;20087;-62
2022/06/04 00:06:20;;;;;;;15.95;9.45;;;;;;;;;;4930312;29;20103;-62
2022/06/04 00:08:46;;;;;;;18.63;11.52;;;;;;;;;;4930343;29;20119;-63
2022/06/04 00:16:41;;;;;;;16.63;9.93;;;;;;;;;;4930713;29;20527;-63
2022/06/04 00:19:07;;;;;;;18.48;9.60;;;;;;;;;;4930299;29;20035;-61
2022/06/04 00:21:33;;;;;;;16.58;9.30;;;;;;;;;;4930378;29;20447;-63
2022/06/04 00:23:59;;;;;;;17.02;9.73;;;;;;;;;;4933167;29;20028;-62
2022/06/04 00:26:26;;;;;;;15.55;9.57;;;;;;;;;;4933671;29;20020;-64
2022/06/04 00:28:52;;;;;;;15.85;9.85;;;;;;;;;;4933770;29;20099;-64
2022/06/04 00:31:18;;;;;;;16.50;9.95;;;;;;;;;;4933553;29;20024;-62
2022/06/04 00:33:44;;;;;;;16.95;9.93;;;;;;;;;;4933686;29;20411;-62
2022/06/04 00:36:11;;;;;;;16.83;9.25;;;;;;;;;;4916664;29;20055;-64
2022/06/04 00:38:37;;;;;;;15.57;9.73;;;;;;;;;;4916141;29;20032;-63
2022/06/04 00:41:12;;;;;;;17.92;10.00;;;;;;;;;;4933333;29;20543;-63
2022/06/04 00:43:57;;;;;;;16.60;9.57;;;;;;;;;;4933597;29;20101;-62
2022/06/04 00:46:41;;;;;;;16.65;10.30;;;;;;;;;;4958931;23;20497;-60
2022/06/04 00:49:08;;;;;;;16.75;9.73;;;;;;;;;;4952737;29;20038;-58
2022/06/04 00:51:34;;;;;;;18.27;9.25;;;;;;;;;;4953157;29;20062;-60
2022/06/04 00:54:00;;;;;;;17.42;9.90;;;;;;;;;;4953410;29;20047;-61
2022/06/04 00:56:45;;;;;;;16.35;9.45;;;;;;;;;;4953063;29;20506;-60
2022/06/04 00:59:29;;;;;;;16.48;9.23;;;;;;;;;;4935928;28;20042;-62
2022/06/04 01:02:04;;;;;;;18.33;9.63;;;;;;;;;;4952977;28;20486;-61
2022/06/04 01:04:56;;;;;;;16.63;9.98;;;;;;;;;;4936021;28;20031;-60
2022/06/04 01:07:43;;;;;;;16.13;9.52;;;;;;;;;;4935709;28;20034;-63
2022/06/04 01:10:12;;;;;;;16.23;9.50;;;;;;;;;;4952942;29;20497;-63
2022/06/04 01:12:38;;;;;;;15.90;9.45;;;;;;;;;;4935974;28;20023;-63
2022/06/04 01:15:05;;;;;;;15.43;9.07;;;;;;;;;;4953241;28;20046;-62
2022/06/04 01:17:57;;;;;;;19.77;9.30;;;;;;;;;;4952661;29;20109;-63
2022/06/04 01:20:33;;;;;;;18.15;9.80;;;;;;;;;;4936177;29;20050;-63
2022/06/04 01:23:04;;;;;;;17.50;9.98;;;;;;;;;;4952921;29;20031;-63
2022/06/04 01:25:33;;;;;;;16.23;9.57;;;;;;;;;;4952750;29;20106;-62
2022/06/04 01:28:05;;;;;;;15.73;9.43;;;;;;;;;;4952302;29;20027;-63
2022/06/04 01:30:34;;;;;;;16.30;9.35;;;;;;;;;;4935565;28;20027;-64
2022/06/04 01:33:06;;;;;;;17.40;10.00;;;;;;;;;;4952601;28;20501;-63
2022/06/04 01:35:36;;;;;;;17.90;10.27;;;;;;;;;;4934088;28;20031;-59
2022/06/04 01:38:05;;;;;;;16.83;9.35;;;;;;;;;;4952601;29;20406;-63
2022/06/04 01:43:19;;;;;;;18.27;9.48;;;;;;;;;;4952633;29;20053;-62
2022/06/04 01:45:46;;;;;;;17.83;9.93;;;;;;;;;;4952140;28;20024;-63
2022/06/04 01:48:13;;;;;;;16.63;9.55;;;;;;;;;;4952621;28;20140;-62
2022/06/04 01:50:42;;;;;;;16.60;9.55;;;;;;;;;;4952209;29;20111;-63
2022/06/04 01:53:09;;;;;;;19.00;9.15;;;;;;;;;;4952406;28;20063;-63
2022/06/04 01:55:41;;;;;;;18.25;8.85;;;;;;;;;;4935123;28;20053;-63
2022/06/04 01:58:10;;;;;;;16.98;9.32;;;;;;;;;;4952155;29;20016;-62
2022/06/04 02:00:38;;;;;;;17.42;10.00;;;;;;;;;;4952358;29;20023;-63
2022/06/04 02:03:18;;;;;;;18.13;9.32;;;;;;;;;;4952298;28;20042;-63
2022/06/04 02:05:44;;;;;;;17.98;10.15;;;;;;;;;;4952109;28;20031;-64
2022/06/04 02:08:12;;;;;;;18.60;9.50;;;;;;;;;;4934852;28;20085;-63
2022/06/04 02:10:58;;;;;;;17.17;9.60;;;;;;;;;;4952036;28;20027;-62
2022/06/04 02:13:24;;;;;;;18.40;9.65;;;;;;;;;;4951839;29;20674;-62
2022/06/04 02:16:14;;;;;;;17.63;10.10;;;;;;;;;;4952367;28;20023;-61
2022/06/04 02:18:41;;;;;;;18.77;9.27;;;;;;;;;;4951831;29;20027;-61
2022/06/04 02:21:07;;;;;;;21.35;10.77;;;;;;;;;;4934892;28;20026;-62
2022/06/04 02:23:34;;;;;;;18.35;10.32;;;;;;;;;;4951908;28;20077;-63
2022/06/04 02:26:00;;;;;;;17.85;10.35;;;;;;;;;;4951933;29;20051;-61
2022/06/04 02:28:26;;;;;;;18.17;9.73;;;;;;;;;;4934655;28;20047;-60
2022/06/04 02:31:11;;;;;;;15.85;9.88;;;;;;;;;;4951729;28;20046;-58
2022/06/04 02:33:41;;;;;;;17.90;9.85;;;;;;;;;;4934731;28;20072;-58
2022/06/04 02:36:09;;;;;;;18.63;9.82;;;;;;;;;;4934529;28;20024;-57
2022/06/04 02:38:55;;;;;;;18.73;10.45;;;;;;;;;;4951581;28;20038;-60
2022/06/04 02:41:24;;;;;;;16.83;9.05;;;;;;;;;;4934270;29;20083;-64
2022/06/04 02:44:00;;;;;;;16.77;9.80;;;;;;;;;;4934669;28;20035;-63
2022/06/04 02:46:26;;;;;;;17.42;9.85;;;;;;;;;;4934017;28;20039;-62
2022/06/04 02:49:01;;;;;;;16.75;10.02;;;;;;;;;;4933929;28;20027;-63
2022/06/04 02:51:34;;;;;;;15.77;9.25;;;;;;;;;;4950583;28;20050;-64
2022/06/04 02:54:02;;;;;;;16.67;9.48;;;;;;;;;;4951203;29;20038;-63
2022/06/04 02:56:31;;;;;;;17.13;9.77;;;;;;;;;;4951635;28;20028;-61
2022/06/04 02:59:00;;;;;;;17.23;9.80;;;;;;;;;;4951568;28;20031;-60
2022/06/04 03:01:26;;;;;;;18.65;9.95;;;;;;;;;;4934368;28;20118;-63
2022/06/04 03:03:52;;;;;;;16.80;10.73;;;;;;;;;;4951339;28;20031;-61
2022/06/04 03:06:26;;;;;;;18.05;10.02;;;;;;;;;;4951320;29;20063;-63
2022/06/04 03:08:52;;;;;;;19.55;10.27;;;;;;;;;;4951059;29;20106;-62
2022/06/04 03:11:18;;;;;;;17.70;10.38;;;;;;;;;;4951395;28;20050;-62
2022/06/04 03:13:45;;;;;;;18.38;10.10;;;;;;;;;;4951040;29;20035;-62
2022/06/04 03:16:12;;;;;;;18.55;10.73;;;;;;;;;;4951238;28;20027;-63
2022/06/04 03:18:38;;;;;;;18.35;10.15;;;;;;;;;;4933856;28;20036;-63
2022/06/04 03:21:04;;;;;;;17.58;10.60;;;;;;;;;;4950967;28;20098;-63
2022/06/04 03:23:31;;;;;;;18.08;10.30;;;;;;;;;;4950784;28;20502;-63
2022/06/04 03:25:57;;;;;;;17.52;10.60;;;;;;;;;;4951052;29;20134;-62
2022/06/04 03:28:23;;;;;;;18.02;10.15;;;;;;;;;;4933733;28;20038;-63
2022/06/04 03:30:49;;;;;;;18.40;10.38;;;;;;;;;;4951110;28;20023;-62
2022/06/04 03:33:15;;;;;;;16.73;10.23;;;;;;;;;;4933494;28;20518;-63
2022/06/04 03:35:42;;;;;;;27.10;10.93;;;;;;;;;;4951116;28;20046;-61
2022/06/04 03:38:08;;;;;;;17.75;10.63;;;;;;;;;;4950866;29;20024;-63
2022/06/04 03:40:34;;;;;;;18.33;10.30;;;;;;;;;;4951073;29;20514;-63
2022/06/04 03:43:00;;;;;;;18.63;10.10;;;;;;;;;;4951059;28;20042;-59
2022/06/04 03:45:26;;;;;;;20.08;10.48;;;;;;;;;;4934244;28;20089;-60
2022/06/04 03:47:53;;;;;;;17.33;10.88;;;;;;;;;;4950582;28;20039;-60
2022/06/04 03:50:19;;;;;;;17.60;9.65;;;;;;;;;;4951073;29;20031;-60
2022/06/04 03:52:46;;;;;;;20.55;9.77;;;;;;;;;;4950794;28;20027;-63
2022/06/04 03:55:13;;;;;;;17.25;9.73;;;;;;;;;;4950833;28;20037;-61
2022/06/04 03:57:50;;;;;;;18.33;9.70;;;;;;;;;;4951535;28;20093;-61
2022/06/04 04:00:22;;;;;;;19.75;10.20;;;;;;;;;;4954394;28;20024;-63
2022/06/04 04:02:49;;;;;;;16.88;10.00;;;;;;;;;;4953929;28;20479;-60
2022/06/04 04:05:17;;;;;;;19.67;10.10;;;;;;;;;;4954102;28;20035;-63
2022/06/04 04:07:43;;;;;;;19.05;10.35;;;;;;;;;;4936588;28;20036;-63
2022/06/04 04:10:09;;;;;;;17.75;10.20;;;;;;;;;;4954226;28;20411;-62
2022/06/04 04:12:36;;;;;;;19.10;10.45;;;;;;;;;;4953882;28;20035;-63
2022/06/04 04:15:02;;;;;;;18.80;10.68;;;;;;;;;;4953804;29;20031;-62
2022/06/04 04:17:28;;;;;;;17.55;10.60;;;;;;;;;;4936636;28;20106;-63
2022/06/04 04:19:54;;;;;;;19.20;11.45;;;;;;;;;;4953930;28;20027;-62
2022/06/04 04:22:20;;;;;;;16.77;10.55;;;;;;;;;;4936525;28;20027;-62
2022/06/04 04:24:46;;;;;;;19.30;11.25;;;;;;;;;;4954040;28;20454;-63
2022/06/04 04:27:13;;;;;;;17.73;10.48;;;;;;;;;;4953898;29;20106;-63
2022/06/04 04:29:39;;;;;;;17.40;10.73;;;;;;;;;;4937206;28;20034;-64
2022/06/04 04:32:05;;;;;;;16.30;10.48;;;;;;;;;;4953868;28;20034;-63
2022/06/04 04:34:31;;;;;;;16.67;9.95;;;;;;;;;;4953885;29;20031;-63
2022/06/04 04:36:57;;;;;;;18.02;10.40;;;;;;;;;;4953852;29;20031;-63
2022/06/04 04:39:24;;;;;;;16.77;9.95;;;;;;;;;;4936329;28;20390;-62
2022/06/04 04:41:50;;;;;;;16.55;10.18;;;;;;;;;;4953662;28;20031;-63
2022/06/04 04:44:16;;;;;;;20.23;10.90;;;;;;;;;;4953305;28;20452;-63
2022/06/04 04:46:42;;;;;;;18.00;10.43;;;;;;;;;;4953277;28;20051;-63
2022/06/04 04:49:09;;;;;;;17.85;10.52;;;;;;;;;;4953132;28;20372;-63
2022/06/04 04:51:35;;;;;;;18.83;9.95;;;;;;;;;;4953392;29;20024;-63
2022/06/04 04:54:02;;;;;;;17.05;11.00;;;;;;;;;;4953259;28;20019;-63
2022/06/04 04:56:28;;;;;;;20.73;10.90;;;;;;;;;;4936060;28;20082;-63
2022/06/04 04:58:54;;;;;;;20.25;12.07;;;;;;;;;;4953168;28;20479;-65
2022/06/04 05:01:21;;;;;;;16.77;10.50;;;;;;;;;;4953208;28;20510;-62
2022/06/04 05:03:48;;;;;;;16.33;10.77;;;;;;;;;;4952922;28;20120;-63
2022/06/04 05:06:15;;;;;;;19.20;10.85;;;;;;;;;;4952875;28;20333;-64
2022/06/04 05:08:41;;;;;;;16.42;10.77;;;;;;;;;;4952734;28;20479;-62
2022/06/04 05:11:12;;;;;;;18.67;11.70;;;;;;;;;;4935924;28;20034;-63
2022/06/04 05:13:38;;;;;;;18.40;10.93;;;;;;;;;;4953395;28;20382;-63
2022/06/04 05:16:04;;;;;;;19.50;13.55;;;;;;;;;;4952805;28;20092;-58
2022/06/04 05:18:30;;;;;;;18.85;11.30;;;;;;;;;;4952663;28;20031;-63
2022/06/04 05:21:07;;;;;;;18.55;11.10;;;;;;;;;;4952970;28;20673;-63
2022/06/04 05:23:36;;;;;;;19.17;10.60;;;;;;;;;;4953499;29;20479;-64
2022/06/04 05:26:02;;;;;;;19.67;10.90;;;;;;;;;;4953198;28;20035;-63
2022/06/04 05:28:28;;;;;;;18.98;10.73;;;;;;;;;;4952496;29;20054;-62
2022/06/04 05:30:54;;;;;;;21.38;10.85;;;;;;;;;;4952857;28;20113;-62
2022/06/04 05:33:21;;;;;;;17.02;10.43;;;;;;;;;;4952633;29;20026;-63
2022/06/04 05:35:47;;;;;;;17.77;10.90;;;;;;;;;;4952644;28;20130;-63
2022/06/04 05:38:13;;;;;;;19.33;10.77;;;;;;;;;;4935204;28;20114;-62
2022/06/04 05:40:39;;;;;;;16.67;10.82;;;;;;;;;;4952770;28;20514;-63
2022/06/04 05:43:05;;;;;;;17.33;11.32;;;;;;;;;;4952656;28;20031;-63
2022/06/04 05:45:31;;;;;;;18.10;11.43;;;;;;;;;;4952573;29;20031;-63
2022/06/04 05:47:57;;;;;;;18.25;11.90;;;;;;;;;;4952100;28;20042;-59
2022/06/04 05:50:23;;;;;;;18.10;11.20;;;;;;;;;;4952479;28;20089;-61
2022/06/04 05:52:49;;;;;;;17.70;11.75;;;;;;;;;;4935232;28;20446;-60
2022/06/04 05:55:15;;;;;;;18.58;11.30;;;;;;;;;;4935370;28;20445;-63
2022/06/04 05:57:41;;;;;;;17.13;11.07;;;;;;;;;;4951969;28;20542;-61
2022/06/04 06:00:08;;;;;;;17.15;10.65;;;;;;;;;;4952408;29;20061;-61
2022/06/04 06:02:37;;;;;;;17.85;11.27;;;;;;;;;;4952393;28;20027;-58
2022/06/04 06:05:03;;;;;;;16.80;10.77;;;;;;;;;;4952456;28;20035;-60
2022/06/04 06:07:30;;;;;;;17.38;10.70;;;;;;;;;;4934808;28;20081;-60
2022/06/04 06:09:56;;;;;;;17.60;11.32;;;;;;;;;;4935127;28;20114;-59
2022/06/04 06:12:22;;;;;;;17.80;11.20;;;;;;;;;;4935149;28;20028;-60
2022/06/04 06:14:48;;;;;;;16.55;11.15;;;;;;;;;;4952067;28;20039;-61
2022/06/04 06:17:13;;;;;;;17.10;11.18;;;;;;;;;;4934706;28;20054;-61
2022/06/04 06:19:39;;;;;;;16.73;10.85;;;;;;;;;;4951799;28;20114;-58
2022/06/04 06:22:06;;;;;;;17.67;11.15;;;;;;;;;;4934282;28;20117;-60
2022/06/04 06:24:32;;;;;;;18.80;11.35;;;;;;;;;;4952064;28;20028;-61
2022/06/04 06:26:59;;;;;;;17.80;12.05;;;;;;;;;;4951901;29;20023;-61
2022/06/04 06:29:26;;;;;;;17.80;11.75;;;;;;;;;;4934570;28;20038;-62
2022/06/04 06:31:53;;;;;;;17.45;10.93;;;;;;;;;;4951694;29;20023;-61
2022/06/04 06:34:20;;;;;;;18.60;12.05;;;;;;;;;;4951601;29;20050;-61
2022/06/04 06:36:46;;;;;;;18.08;11.68;;;;;;;;;;4951783;28;20028;-60
2022/06/04 06:39:12;;;;;;;17.95;11.15;;;;;;;;;;4934328;28;20034;-61
2022/06/04 06:41:38;;;;;;;16.92;11.70;;;;;;;;;;4934129;28;20031;-61
2022/06/04 06:44:04;;;;;;;17.70;12.40;;;;;;;;;;4951660;28;20042;-56
2022/06/04 06:46:35;;;;;;;16.40;11.05;;;;;;;;;;4970021;23;21528;-61
2022/06/04 06:49:01;;;;;;;17.25;11.57;;;;;;;;;;4949819;29;20058;-62
2022/06/04 06:51:32;;;;;;;17.38;11.80;;;;;;;;;;4950538;29;20020;-61
2022/06/04 06:53:58;;;;;;;18.17;11.20;;;;;;;;;;4933274;29;20632;-61
2022/06/04 06:56:25;;;;;;;17.38;11.00;;;;;;;;;;4950356;29;20051;-61
2022/06/04 06:58:52;;;;;;;20.00;13.68;;;;;;;;;;4950099;29;20098;-61
2022/06/04 07:01:18;;;;;;;19.08;11.60;;;;;;;;;;4950186;28;20031;-62
2022/06/04 07:03:44;;;;;;;17.40;11.23;;;;;;;;;;4950212;28;20509;-62
2022/06/04 07:06:11;;;;;;;16.88;11.02;;;;;;;;;;4950229;29;20031;-62
2022/06/04 07:08:38;;;;;;;16.75;11.07;;;;;;;;;;4949712;28;20035;-61
2022/06/04 07:11:05;;;;;;;16.33;11.40;;;;;;;;;;4950122;29;20471;-62
2022/06/04 07:13:31;;;;;;;15.93;11.07;;;;;;;;;;4949891;28;20082;-61
2022/06/04 07:15:57;;;;;;;17.80;11.20;;;;;;;;;;4932641;28;20403;-62
2022/06/04 07:18:23;;;;;;;17.25;11.10;;;;;;;;;;4949445;29;20023;-60
2022/06/04 07:20:50;;;;;;;16.13;11.30;;;;;;;;;;4932690;28;20541;-61
2022/06/04 07:23:16;;;;;;;17.33;10.73;;;;;;;;;;4949859;28;20027;-63
2022/06/04 07:25:44;;;;;;;16.52;11.10;;;;;;;;;;4949770;28;20019;-61
2022/06/04 07:28:11;;;;;;;17.52;11.05;;;;;;;;;;4949170;28;20058;-62
2022/06/04 07:30:37;;;;;;;17.20;11.18;;;;;;;;;;4949725;29;20071;-62
2022/06/04 07:33:03;;;;;;;16.30;11.38;;;;;;;;;;4952503;28;20037;-62
2022/06/04 07:35:29;;;;;;;16.63;11.38;;;;;;;;;;4952908;28;20015;-61
2022/06/04 07:37:55;;;;;;;15.98;10.65;;;;;;;;;;4935305;28;20471;-61
2022/06/04 07:40:21;;;;;;;15.73;10.73;;;;;;;;;;4935338;28;20074;-61
2022/06/04 07:42:47;;;;;;;15.68;10.88;;;;;;;;;;4953399;28;20103;-61
2022/06/04 07:45:14;;;;;;;16.27;11.30;;;;;;;;;;4953067;28;20515;-61
2022/06/04 07:47:41;;;;;;;17.55;11.85;;;;;;;;;;4952599;28;20092;-61
2022/06/04 07:50:08;;;;;;;16.27;11.10;;;;;;;;;;4952950;28;20034;-62
2022/06/04 07:52:34;;;;;;;17.40;10.73;;;;;;;;;;4952770;28;20137;-61
2022/06/04 07:55:00;;;;;;;16.17;10.88;;;;;;;;;;4953121;28;20574;-61
2022/06/04 07:57:26;;;;;;;18.38;11.20;;;;;;;;;;4935314;28;20031;-61
2022/06/04 07:59:52;;;;;;;18.00;10.70;;;;;;;;;;4952781;29;20479;-61
2022/06/04 08:02:21;;;;;;;17.38;10.90;;;;;;;;;;4952930;28;20142;-62
2022/06/04 08:04:48;;;;;;;17.48;11.07;;;;;;;;;;4935581;28;20034;-62
2022/06/04 08:07:15;;;;;;;16.35;10.88;;;;;;;;;;4952320;28;20027;-60
2022/06/04 08:09:41;;;;;;;16.63;10.77;;;;;;;;;;4935767;28;20114;-62
2022/06/04 08:12:07;;;;;;;18.08;11.15;;;;;;;;;;4935805;28;20046;-62
2022/06/04 08:14:33;;;;;;;17.08;10.70;;;;;;;;;;4953007;29;20023;-62
2022/06/04 08:17:00;;;;;;;17.33;11.35;;;;;;;;;;4936216;28;20073;-61
2022/06/04 08:19:28;;;;;;;17.63;11.13;;;;;;;;;;4953166;28;20034;-59
2022/06/04 08:21:55;;;;;;;17.33;11.75;;;;;;;;;;4953079;28;20084;-61
2022/06/04 08:24:21;;;;;;;16.45;10.80;;;;;;;;;;4953516;28;20058;-62
2022/06/04 08:26:48;;;;;;;17.25;11.48;;;;;;;;;;4953020;28;20043;-60
2022/06/04 08:29:15;;;;;;;17.10;11.77;;;;;;;;;;4605565;28;10000525;-61
2022/06/04 08:31:41;;;;;;;17.30;11.32;;;;;;;;;;5028273;28;20029;-60
2022/06/04 08:34:07;;;;;;;16.42;11.20;;;;;;;;;;4991961;28;20110;-59
2022/06/04 08:36:34;;;;;;;17.15;11.40;;;;;;;;;;4950301;28;20030;-60
2022/06/04 08:39:01;;;;;;;18.15;12.13;;;;;;;;;;4932851;28;20027;-56
2022/06/04 08:41:27;;;;;;;31.45;25.88;;;;;;;;;;4931447;28;20107;-59
2022/06/04 08:43:59;;;;;;;24.05;16.20;;;;;;;;;;4931461;28;20035;-58
2022/06/04 08:46:28;;;;;;;21.35;15.65;;;;;;;;;;4939386;28;20023;-60
2022/06/04 08:48:56;;;;;;;17.67;11.60;;;;;;;;;;4952019;28;20039;-60
2022/06/04 08:51:24;;;;;;;18.15;11.35;;;;;;;;;;4952100;29;20099;-60
2022/06/04 08:53:52;;;;;;;16.95;12.25;;;;;;;;;;4952270;28;20677;-60
2022/06/04 08:59:22;;;;;;;20.38;14.00;;;;;;;;;;4951399;29;20080;-60
2022/06/04 09:01:52;;;;;;;18.48;12.65;;;;;;;;;;4951719;29;20419;-60
2022/06/04 09:04:33;;;;;;;17.92;11.88;;;;;;;;;;4938369;29;20063;-61
2022/06/04 09:07:09;;;;;;;16.48;11.65;;;;;;;;;;4931778;28;20123;-59
2022/06/04 09:09:53;;;;;;;17.27;10.88;;;;;;;;;;4932484;28;20111;-60
2022/06/04 09:12:29;;;;;;;16.35;11.23;;;;;;;;;;4932379;28;20498;-59
2022/06/04 09:15:13;;;;;;;15.77;10.55;;;;;;;;;;4932308;28;20264;-60
2022/06/04 09:17:45;;;;;;;16.15;11.20;;;;;;;;;;4932378;28;20034;-59
2022/06/04 09:20:17;;;;;;;19.23;11.90;;;;;;;;;;4932492;28;20094;-61
2022/06/04 09:22:44;;;;;;;19.42;11.50;;;;;;;;;;4932344;28;20024;-61
2022/06/04 09:25:20;;;;;;;20.42;12.13;;;;;;;;;;4915224;28;20057;-59
2022/06/04 09:27:52;;;;;;;17.45;11.50;;;;;;;;;;4931971;28;20391;-58
2022/06/04 09:30:18;;;;;;;16.83;11.38;;;;;;;;;;4926739;28;20088;-60
2022/06/04 09:32:49;;;;;;;17.80;11.60;;;;;;;;;;4950939;29;20039;-58
2022/06/04 09:35:19;;;;;;;17.08;11.68;;;;;;;;;;4951568;28;20027;-59
2022/06/04 09:37:46;;;;;;;18.17;11.27;;;;;;;;;;4951195;28;20081;-60
2022/06/04 09:40:21;;;;;;;18.73;11.27;;;;;;;;;;4934312;28;20120;-59
2022/06/04 09:42:47;;;;;;;17.95;12.02;;;;;;;;;;4951279;28;20482;-58
2022/06/04 09:45:27;;;;;;;16.83;10.90;;;;;;;;;;4951787;28;20380;-58
2022/06/04 09:47:57;;;;;;;17.67;10.80;;;;;;;;;;4951018;28;20066;-56
2022/06/04 09:50:33;;;;;;;15.98;10.90;;;;;;;;;;4934136;28;20027;-61
2022/06/04 09:53:02;;;;;;;17.15;11.40;;;;;;;;;;4951259;28;20050;-60
2022/06/04 09:55:28;;;;;;;17.55;11.13;;;;;;;;;;4949777;29;20020;-60
2022/06/04 09:57:56;;;;;;;17.27;11.02;;;;;;;;;;4933561;28;20031;-60
2022/06/04 10:00:24;;;;;;;16.83;11.43;;;;;;;;;;4951104;28;20452;-60
2022/06/04 10:02:54;;;;;;;17.85;10.95;;;;;;;;;;4951223;28;20165;-59
2022/06/04 10:05:21;;;;;;;19.25;11.73;;;;;;;;;;4932103;29;20039;-60
2022/06/04 10:07:47;;;;;;;18.52;11.90;;;;;;;;;;4931557;28;20365;-61
2022/06/04 10:10:13;;;;;;;15.77;11.90;;;;;;;;;;4914551;29;20027;-60
2022/06/04 10:15:32;;;;;;;16.55;10.95;;;;;;;;;;4932010;29;20035;-58
2022/06/04 10:18:04;;;;;;;17.63;11.30;;;;;;;;;;4931360;28;20020;-59
2022/06/04 10:20:30;;;;;;;16.75;11.98;;;;;;;;;;4931100;29;20023;-59
2022/06/04 10:22:56;;;;;;;18.20;11.60;;;;;;;;;;4931380;29;20040;-59
2022/06/04 10:25:26;;;;;;;17.17;11.95;;;;;;;;;;4914090;28;20571;-59
2022/06/04 10:27:55;;;;;;;17.90;11.88;;;;;;;;;;4930842;29;20032;-58
2022/06/04 10:30:22;;;;;;;18.90;12.20;;;;;;;;;;4943158;28;20031;-60
2022/06/04 10:32:48;;;;;;;17.17;11.63;;;;;;;;;;4950167;29;20399;-57
2022/06/04 10:35:40;;;;;;;19.25;12.35;;;;;;;;;;4950288;28;20027;-60
2022/06/04 10:38:26;;;;;;;22.13;16.05;;;;;;;;;;4949808;29;20038;-59
2022/06/04 10:41:11;;;;;;;17.50;12.75;;;;;;;;;;4248860;28;10000562;-60
2022/06/04 10:43:56;;;;;;;18.15;12.15;;;;;;;;;;4929715;28;20080;-59
2022/06/04 10:46:22;;;;;;;17.00;11.43;;;;;;;;;;4929725;28;20404;-60
2022/06/04 10:48:48;;;;;;;17.52;12.05;;;;;;;;;;4930973;28;20032;-60
2022/06/04 10:51:26;;;;;;;17.65;11.80;;;;;;;;;;4931034;29;20083;-60
2022/06/04 10:54:08;;;;;;;17.48;12.13;;;;;;;;;;4930835;28;20024;-60
2022/06/04 10:56:40;;;;;;;16.17;12.07;;;;;;;;;;4930995;29;20092;-60
2022/06/04 10:59:20;;;;;;;17.35;11.50;;;;;;;;;;4930883;28;20391;-60
2022/06/04 11:01:49;;;;;;;17.08;12.00;;;;;;;;;;4930822;29;20028;-60
2022/06/04 11:04:33;;;;;;;17.38;11.85;;;;;;;;;;4930781;28;20031;-60
2022/06/04 11:07:03;;;;;;;17.98;11.43;;;;;;;;;;4930404;29;20032;-62
2022/06/04 11:09:36;;;;;;;18.05;11.73;;;;;;;;;;4930473;28;20027;-60
2022/06/04 11:12:26;;;;;;;16.55;12.18;;;;;;;;;;4913400;28;20032;-60
2022/06/04 11:14:58;;;;;;;17.23;12.00;;;;;;;;;;4916857;29;20118;-60
2022/06/04 11:17:26;;;;;;;18.40;11.80;;;;;;;;;;4929506;28;20038;-60
2022/06/04 11:19:52;;;;;;;;;;;;;;;;;;4930996;28;20024;-59
2022/06/04 11:22:26;;;;;;;17.33;12.40;;;;;;;;;;4930547;29;19906;-61
2022/06/04 11:24:52;;;;;;;21.73;12.43;;;;;;;;;;4587540;28;10000205;-59
2022/06/04 11:27:22;;;;;;;19.75;12.68;;;;;;;;;;4927189;29;20559;-60
2022/06/04 11:29:50;;;;;;;19.30;11.70;;;;;;;;;;4935091;28;20035;-60
2022/06/04 11:32:19;;;;;;;16.75;11.68;;;;;;;;;;4946822;28;20028;-56
2022/06/04 11:34:54;;;;;;;21.90;12.13;;;;;;;;;;4946470;29;20031;-60
2022/06/04 11:37:29;;;;;;;19.63;12.10;;;;;;;;;;4946286;29;20028;-61
2022/06/04 11:39:55;;;;;;;17.35;11.52;;;;;;;;;;4946521;28;20655;-60
2022/06/04 11:42:29;;;;;;;18.33;11.50;;;;;;;;;;4946520;29;20035;-61
2022/06/04 11:45:14;;;;;;;18.42;11.93;;;;;;;;;;4946503;29;20035;-58
2022/06/04 11:47:40;;;;;;;17.67;12.48;;;;;;;;;;4928885;28;20038;-58
2022/06/04 11:50:06;;;;;;;18.08;12.43;;;;;;;;;;4945948;28;20023;-60
2022/06/04 11:52:40;;;;;;;16.15;11.88;;;;;;;;;;4946238;29;20031;-58
2022/06/04 11:55:07;;;;;;;16.17;12.27;;;;;;;;;;4946236;29;20177;-59
2022/06/04 11:57:41;;;;;;;16.75;12.40;;;;;;;;;;4945953;28;20028;-59
2022/06/04 12:00:26;;;;;;;16.63;12.55;;;20.70;80.70;;;;;;4937444;28;20106;-61
2022/06/04 12:03:18;;;;;;;16.85;12.85;;;28.70;89.10;;;;;;4916826;28;20028;-60
2022/06/04 12:05:50;;;;;;;17.23;12.27;;;28.70;88.10;;;;;;4935394;29;20043;-59
2022/06/04 12:08:20;;;;;;;17.80;13.18;;;28.70;87.00;;;;;;4933366;29;20036;-60
2022/06/04 12:10:52;;;;;;;17.27;12.70;;;29.10;87.00;;;;;;4938111;29;20387;-58
2022/06/04 12:13:24;;;;;;;17.90;12.68;;;;;;;;;;4935742;29;20032;-60
2022/06/04 12:15:55;;;;;;;17.00;11.88;;;;;;;;;;4919784;29;20024;-60
2022/06/04 12:18:38;;;;;;;16.90;12.05;;;;;;;;;;4934857;29;20063;-60
2022/06/04 12:26:38;;;;;;;17.33;12.27;;;;;;;;;;4941805;29;20453;-60
2022/06/04 12:29:23;;;;;;;18.08;11.88;;;;;;;;;;4939000;28;20028;-61
2022/06/04 12:31:59;;;;;;;18.95;12.27;;;;;;;;;;4925393;29;20023;-60
2022/06/04 12:34:27;;;;;;;15.48;11.75;;;;;;;;;;4932913;28;20110;-60
2022/06/04 12:36:54;;;;;;;17.27;11.82;;;;;;;;;;4932084;28;20020;-60
2022/06/04 12:39:26;;;;;;;18.02;11.45;;;;;;;;;;4931492;28;20031;-61
2022/06/04 12:41:55;;;;;;;16.15;11.32;;;;;;;;;;4931678;28;20119;-60
2022/06/04 12:44:27;;;;;;;14.85;11.18;;;;;;;;;;4933985;28;20060;-60
2022/06/04 12:46:54;;;;;;;16.85;11.85;;;;;;;;;;4948018;29;20061;-60
2022/06/04 12:49:21;;;;;;;16.83;11.10;;;;;;;;;;4932765;28;20050;-60
2022/06/04 12:51:47;;;;;;;17.52;11.85;;;;;;;;;;4951547;28;20043;-61
2022/06/04 12:54:19;;;;;;;16.85;11.82;;;;;;;;;;4935955;28;20085;-60
2022/06/04 12:56:51;;;;;;;18.92;11.50;;;;;;;;;;4932337;29;20095;-60
2022/06/04 12:59:44;;;;;;;16.38;11.50;;;;;;;;;;4931243;29;20036;-60
2022/06/04 13:02:33;;;;;;;15.38;11.40;;;;;;;;;;4968330;23;20051;-61
2022/06/04 13:05:10;;;;;;;17.05;11.80;;;;;;;;;;4940640;28;20039;-61
2022/06/04 13:07:48;;;;;;;15.83;11.23;;;;;;;;;;4952580;29;20423;-61
2022/06/04 13:10:17;;;;;;;18.05;11.75;;;;;;;;;;4953388;29;20050;-59
2022/06/04 13:12:43;;;;;;;17.90;12.00;;;;;;;;;;4953003;29;20042;-61
2022/06/04 13:15:33;;;;;;;16.10;11.50;;;;;;;;;;4952852;28;20051;-61
2022/06/04 13:17:59;;;;;;;16.33;11.32;;;;;;;;;;4934842;29;20032;-61
2022/06/04 13:21:03;;;;;;;16.45;11.80;;;29.70;86.20;;;;;;4952710;28;20051;-61
2022/06/04 13:23:41;;;;;;;16.65;11.65;;;34.10;70.30;;;;;;4952763;28;20099;-61
2022/06/04 13:26:27;;;;;;;17.52;12.27;;;34.60;69.30;;;;;;4952886;29;20031;-61
2022/06/04 13:28:53;;;;;;;16.23;11.63;;;35.20;67.50;;;;;;4934934;28;20089;-61
2022/06/04 13:31:19;;;;;;;16.70;12.80;;;;;;;;;;4933367;29;20671;-61
2022/06/04 13:33:45;;;;;;;16.75;11.80;;;;;;;;;;4933426;29;20542;-60
2022/06/04 13:36:12;;;;;;;17.73;12.27;;;;;;;;;;4933573;29;20031;-61
2022/06/04 13:38:40;;;;;;;17.67;12.20;;;;;;;;;;4915916;29;20127;-63
2022/06/04 13:41:06;;;;;;;;;;;;;;;;;;4933827;29;20183;-60
2022/06/04 13:43:52;;;;;;;16.73;12.27;;;;;;;;;;4933746;29;19963;-62
2022/06/04 13:46:23;;;;;;;18.42;12.27;;;;;;;;;;4916215;29;20131;-62
2022/06/04 13:48:51;;;;;;;16.30;12.18;;;;;;;;;;4933246;29;20035;-62
2022/06/04 13:51:21;;;;;;;16.13;12.27;;;;;;;;;;4933358;29;20491;-62
2022/06/04 13:53:53;;;;;;;19.05;12.90;;;34.80;67.30;;;;;;4936532;28;20035;-62
2022/06/04 13:56:20;;;;;;;18.63;12.27;;;36.10;63.00;;;;;;4935977;28;20028;-62
2022/06/04 13:58:47;;;;;;;16.40;12.20;;;;;;;;;;4938139;28;20060;-60
2022/06/04 14:01:21;;;;;;;18.77;12.88;;;;;;;;;;4924648;28;20027;-60
2022/06/04 14:03:49;;;;;;;17.55;12.73;;;;;;;;;;4942281;28;20059;-62
2022/06/04 14:06:15;;;;;;;15.88;12.57;;;;;;;;;;4941685;28;20031;-59
2022/06/04 14:08:51;;;;;;;21.40;12.82;;;;;;;;;;4923460;28;20031;-62
2022/06/04 14:11:17;;;;;;;17.35;13.15;;;;;;;;;;4951837;28;20031;-62
2022/06/04 14:14:01;;;;;;;16.83;12.73;;;;;;;;;;4951983;29;20039;-62
2022/06/04 14:16:45;;;;;;;18.65;12.18;;;;;;;;;;4259252;28;10000337;-62
2022/06/04 14:19:25;;;;;;;16.08;12.73;;;;;;;;;;4916282;29;20023;-62
2022/06/04 14:21:53;;;;;;;16.33;12.80;;;;;;;;;;4942757;29;20419;-60
2022/06/04 14:24:32;;;;;;;17.38;12.88;;;;;;;;;;4920158;28;20024;-58
2022/06/04 14:27:05;;;;;;;16.90;13.32;;;;;;;;;;4939120;29;20503;-60
2022/06/04 14:29:31;;;;;;;15.50;12.05;;;;;;;;;;4919886;29;20028;-60
2022/06/04 14:32:15;;;;;;;16.30;12.45;;;;;;;;;;4938820;28;20030;-60
2022/06/04 14:34:43;;;;;;;16.50;12.10;;;;;;;;;;4922586;28;20043;-60
2022/06/04 14:37:09;;;;;;;16.42;12.60;;;;;;;;;;4923266;28;20016;-58
2022/06/04 14:39:36;;;;;;;15.83;12.57;;;;;;;;;;4946341;28;20031;-60
2022/06/04 14:42:05;;;;;;;17.02;12.88;;;;;;;;;;4939055;28;20023;-61
2022/06/04 14:44:34;;;;;;;18.00;11.98;;;;;;;;;;4938772;28;20036;-61
2022/06/04 14:47:16;;;;;;;17.40;12.40;;;;;;;;;;4920631;28;20920;-61
2022/06/04 14:49:51;;;;;;;16.10;12.63;;;;;;;;;;4937530;28;20097;-61
2022/06/04 14:52:17;;;;;;;17.83;13.30;;;;;;;;;;4935933;28;20035;-62